Terminal Aerodrome Forecast
Issued by NWS Kansas City/Pleasant Hill, MO

Home | Current Version | Previous Version | Text Only | Print | Product List | Glossary On
Versions: 1 2 3 4 5 6 7 8 9 10 11 12 13 14 15 16
000
FTUS43 KEAX 020100 AAA
TAFMCI
TAF AMD
KMCI 020127Z 0201/0224 VRB05KT P6SM BKN050
     FM020200 10003KT P6SM VCTS BKN050CB
     FM020300 10003KT P6SM BKN050
     FM021000 VRB03KT 3SM BR SCT010
     FM021400 10005KT P6SM SCT030=

USA.gov is the U.S. government's official web portal to all federal, state and local government web resources and services.